sensor_id;sensor_type;location;lat;lon;timestamp;P1;durP1;ratioP1;P2;durP2;ratioP2
84500;SDS011;74725;44.210;17.906;2023-12-14T00:00:30;1.08;;;0.98;;
84500;SDS011;74725;44.210;17.906;2023-12-14T00:03:54;1.58;;;1.10;;
84500;SDS011;74725;44.210;17.906;2023-12-14T00:07:18;2.80;;;0.93;;
84500;SDS011;74725;44.210;17.906;2023-12-14T00:10:43;40.63;;;11.98;;
84500;SDS011;74725;44.210;17.906;2023-12-14T00:14:07;43.47;;;13.77;;
84500;SDS011;74725;44.210;17.906;2023-12-14T00:17:32;9.80;;;2.83;;
84500;SDS011;74725;44.210;17.906;2023-12-14T00:20:56;2.45;;;0.90;;
84500;SDS011;74725;44.210;17.906;2023-12-14T00:24:20;1.95;;;1.52;;
84500;SDS011;74725;44.210;17.906;2023-12-14T00:27:44;2.72;;;1.77;;
84500;SDS011;74725;44.210;17.906;2023-12-14T00:31:08;39.78;;;16.83;;
84500;SDS011;74725;44.210;17.906;2023-12-14T00:34:33;29.27;;;12.50;;
84500;SDS011;74725;44.210;17.906;2023-12-14T00:37:57;10.95;;;5.75;;
84500;SDS011;74725;44.210;17.906;2023-12-14T00:41:22;5.05;;;2.65;;
84500;SDS011;74725;44.210;17.906;2023-12-14T00:44:46;1.65;;;1.55;;
84500;SDS011;74725;44.210;17.906;2023-12-14T00:48:11;14.18;;;8.00;;
84500;SDS011;74725;44.210;17.906;2023-12-14T00:51:35;4.32;;;3.13;;
84500;SDS011;74725;44.210;17.906;2023-12-14T00:54:59;7.82;;;4.40;;
84500;SDS011;74725;44.210;17.906;2023-12-14T00:58:23;11.45;;;6.05;;
84500;SDS011;74725;44.210;17.906;2023-12-14T01:01:47;12.65;;;6.50;;
84500;SDS011;74725;44.210;17.906;2023-12-14T01:05:12;10.05;;;5.10;;
84500;SDS011;74725;44.210;17.906;2023-12-14T01:08:36;16.10;;;8.52;;
84500;SDS011;74725;44.210;17.906;2023-12-14T01:12:00;15.48;;;6.72;;
84500;SDS011;74725;44.210;17.906;2023-12-14T01:15:24;12.35;;;5.72;;
84500;SDS011;74725;44.210;17.906;2023-12-14T01:18:51;12.98;;;6.53;;
84500;SDS011;74725;44.210;17.906;2023-12-14T01:22:15;11.65;;;7.10;;
84500;SDS011;74725;44.210;17.906;2023-12-14T01:25:39;10.45;;;5.65;;
84500;SDS011;74725;44.210;17.906;2023-12-14T01:29:03;10.93;;;6.35;;
84500;SDS011;74725;44.210;17.906;2023-12-14T01:32:29;10.02;;;5.78;;
84500;SDS011;74725;44.210;17.906;2023-12-14T01:35:53;9.82;;;5.65;;
84500;SDS011;74725;44.210;17.906;2023-12-14T01:39:17;10.52;;;6.70;;
84500;SDS011;74725;44.210;17.906;2023-12-14T01:42:44;11.27;;;6.55;;
84500;SDS011;74725;44.210;17.906;2023-12-14T01:46:08;9.52;;;5.97;;
84500;SDS011;74725;44.210;17.906;2023-12-14T01:49:32;13.25;;;5.60;;
84500;SDS011;74725;44.210;17.906;2023-12-14T01:52:56;13.52;;;7.30;;
84500;SDS011;74725;44.210;17.906;2023-12-14T01:56:20;13.75;;;7.15;;
84500;SDS011;74725;44.210;17.906;2023-12-14T01:59:45;14.40;;;8.15;;
84500;SDS011;74725;44.210;17.906;2023-12-14T02:03:27;17.08;;;8.05;;
84500;SDS011;74725;44.210;17.906;2023-12-14T02:06:51;1.27;;;1.17;;
84500;SDS011;74725;44.210;17.906;2023-12-14T02:10:16;6.80;;;3.00;;
84500;SDS011;74725;44.210;17.906;2023-12-14T02:13:40;17.20;;;9.43;;
84500;SDS011;74725;44.210;17.906;2023-12-14T02:17:07;25.15;;;11.07;;
84500;SDS011;74725;44.210;17.906;2023-12-14T02:20:31;21.50;;;9.80;;
84500;SDS011;74725;44.210;17.906;2023-12-14T02:23:55;23.15;;;10.27;;
84500;SDS011;74725;44.210;17.906;2023-12-14T02:27:19;23.33;;;8.73;;
84500;SDS011;74725;44.210;17.906;2023-12-14T02:30:43;20.40;;;8.23;;
84500;SDS011;74725;44.210;17.906;2023-12-14T02:34:08;6.10;;;3.30;;
84500;SDS011;74725;44.210;17.906;2023-12-14T02:37:32;11.40;;;5.85;;
84500;SDS011;74725;44.210;17.906;2023-12-14T02:40:57;9.75;;;4.25;;
84500;SDS011;74725;44.210;17.906;2023-12-14T02:44:21;10.18;;;7.20;;
84500;SDS011;74725;44.210;17.906;2023-12-14T02:47:45;13.63;;;6.28;;
84500;SDS011;74725;44.210;17.906;2023-12-14T02:51:13;4.75;;;3.10;;
84500;SDS011;74725;44.210;17.906;2023-12-14T02:54:38;2.85;;;1.80;;
84500;SDS011;74725;44.210;17.906;2023-12-14T02:58:02;3.72;;;2.60;;
84500;SDS011;74725;44.210;17.906;2023-12-14T03:01:26;4.45;;;3.55;;
84500;SDS011;74725;44.210;17.906;2023-12-14T03:04:51;3.65;;;2.92;;
84500;SDS011;74725;44.210;17.906;2023-12-14T03:08:15;4.60;;;3.95;;
84500;SDS011;74725;44.210;17.906;2023-12-14T03:11:39;10.82;;;5.90;;
84500;SDS011;74725;44.210;17.906;2023-12-14T03:15:03;11.07;;;6.50;;
84500;SDS011;74725;44.210;17.906;2023-12-14T03:18:28;7.32;;;4.82;;
84500;SDS011;74725;44.210;17.906;2023-12-14T03:21:52;8.07;;;5.35;;
84500;SDS011;74725;44.210;17.906;2023-12-14T03:25:16;6.57;;;4.35;;
84500;SDS011;74725;44.210;17.906;2023-12-14T03:28:40;5.82;;;4.60;;
84500;SDS011;74725;44.210;17.906;2023-12-14T03:32:05;7.63;;;5.82;;
84500;SDS011;74725;44.210;17.906;2023-12-14T03:35:32;9.25;;;6.32;;
84500;SDS011;74725;44.210;17.906;2023-12-14T03:38:56;7.53;;;4.65;;
84500;SDS011;74725;44.210;17.906;2023-12-14T03:42:20;5.53;;;4.07;;
84500;SDS011;74725;44.210;17.906;2023-12-14T03:45:44;5.70;;;4.10;;
84500;SDS011;74725;44.210;17.906;2023-12-14T03:49:09;6.15;;;4.57;;
84500;SDS011;74725;44.210;17.906;2023-12-14T03:52:36;7.25;;;4.53;;
84500;SDS011;74725;44.210;17.906;2023-12-14T03:56:00;7.93;;;5.25;;
84500;SDS011;74725;44.210;17.906;2023-12-14T03:59:24;8.15;;;4.88;;
84500;SDS011;74725;44.210;17.906;2023-12-14T04:01:57;10.48;;;4.97;;
84500;SDS011;74725;44.210;17.906;2023-12-14T04:04:23;11.25;;;7.10;;
84500;SDS011;74725;44.210;17.906;2023-12-14T04:06:49;14.30;;;7.90;;
84500;SDS011;74725;44.210;17.906;2023-12-14T04:09:16;13.25;;;7.43;;
84500;SDS011;74725;44.210;17.906;2023-12-14T04:11:42;8.88;;;5.78;;
84500;SDS011;74725;44.210;17.906;2023-12-14T04:14:08;6.82;;;5.00;;
84500;SDS011;74725;44.210;17.906;2023-12-14T04:16:35;17.67;;;5.43;;
84500;SDS011;74725;44.210;17.906;2023-12-14T04:19:00;14.93;;;8.30;;
84500;SDS011;74725;44.210;17.906;2023-12-14T04:21:26;10.70;;;6.40;;
84500;SDS011;74725;44.210;17.906;2023-12-14T04:23:52;13.02;;;8.02;;
84500;SDS011;74725;44.210;17.906;2023-12-14T04:26:17;9.98;;;7.43;;
84500;SDS011;74725;44.210;17.906;2023-12-14T04:28:43;12.55;;;7.70;;
84500;SDS011;74725;44.210;17.906;2023-12-14T04:31:11;9.10;;;5.35;;
84500;SDS011;74725;44.210;17.906;2023-12-14T04:33:36;12.10;;;7.20;;
84500;SDS011;74725;44.210;17.906;2023-12-14T04:36:02;12.35;;;7.93;;
84500;SDS011;74725;44.210;17.906;2023-12-14T04:38:28;13.50;;;7.75;;
84500;SDS011;74725;44.210;17.906;2023-12-14T04:40:54;11.15;;;7.43;;
84500;SDS011;74725;44.210;17.906;2023-12-14T04:43:19;11.35;;;7.90;;
84500;SDS011;74725;44.210;17.906;2023-12-14T04:45:45;14.15;;;9.13;;
84500;SDS011;74725;44.210;17.906;2023-12-14T04:48:13;16.70;;;10.35;;
84500;SDS011;74725;44.210;17.906;2023-12-14T04:50:39;16.70;;;11.15;;
84500;SDS011;74725;44.210;17.906;2023-12-14T04:53:05;20.58;;;12.15;;
84500;SDS011;74725;44.210;17.906;2023-12-14T04:55:30;26.17;;;15.40;;
84500;SDS011;74725;44.210;17.906;2023-12-14T04:57:56;25.38;;;15.80;;
84500;SDS011;74725;44.210;17.906;2023-12-14T05:00:21;25.65;;;16.20;;
84500;SDS011;74725;44.210;17.906;2023-12-14T05:02:47;23.52;;;15.02;;
84500;SDS011;74725;44.210;17.906;2023-12-14T05:05:14;22.83;;;14.77;;
84500;SDS011;74725;44.210;17.906;2023-12-14T05:07:39;27.92;;;16.52;;
84500;SDS011;74725;44.210;17.906;2023-12-14T05:10:05;47.95;;;24.88;;
84500;SDS011;74725;44.210;17.906;2023-12-14T05:12:31;36.45;;;19.60;;
84500;SDS011;74725;44.210;17.906;2023-12-14T05:14:57;31.00;;;15.40;;
84500;SDS011;74725;44.210;17.906;2023-12-14T05:17:23;31.88;;;14.32;;
84500;SDS011;74725;44.210;17.906;2023-12-14T05:19:48;27.13;;;12.32;;
84500;SDS011;74725;44.210;17.906;2023-12-14T05:22:15;14.32;;;9.05;;
84500;SDS011;74725;44.210;17.906;2023-12-14T05:24:40;11.02;;;7.05;;
84500;SDS011;74725;44.210;17.906;2023-12-14T05:27:06;10.38;;;6.00;;
84500;SDS011;74725;44.210;17.906;2023-12-14T05:29:31;21.50;;;11.27;;
84500;SDS011;74725;44.210;17.906;2023-12-14T05:31:58;32.88;;;16.77;;
84500;SDS011;74725;44.210;17.906;2023-12-14T05:34:24;24.83;;;12.98;;
84500;SDS011;74725;44.210;17.906;2023-12-14T05:36:50;14.43;;;8.52;;
84500;SDS011;74725;44.210;17.906;2023-12-14T05:39:15;18.67;;;10.32;;
84500;SDS011;74725;44.210;17.906;2023-12-14T05:41:41;19.77;;;11.85;;
84500;SDS011;74725;44.210;17.906;2023-12-14T05:44:07;18.60;;;11.80;;
84500;SDS011;74725;44.210;17.906;2023-12-14T05:46:32;19.30;;;12.77;;
84500;SDS011;74725;44.210;17.906;2023-12-14T05:48:58;19.08;;;12.18;;
84500;SDS011;74725;44.210;17.906;2023-12-14T05:51:30;21.88;;;15.32;;
84500;SDS011;74725;44.210;17.906;2023-12-14T05:53:57;22.90;;;16.35;;
84500;SDS011;74725;44.210;17.906;2023-12-14T05:56:22;24.92;;;17.75;;
84500;SDS011;74725;44.210;17.906;2023-12-14T05:58:49;29.95;;;21.63;;
84500;SDS011;74725;44.210;17.906;2023-12-14T06:01:18;23.45;;;15.40;;
84500;SDS011;74725;44.210;17.906;2023-12-14T06:03:44;17.98;;;11.63;;
84500;SDS011;74725;44.210;17.906;2023-12-14T06:06:10;21.30;;;12.98;;
84500;SDS011;74725;44.210;17.906;2023-12-14T06:08:38;20.90;;;17.17;;
84500;SDS011;74725;44.210;17.906;2023-12-14T06:11:04;22.00;;;14.73;;
84500;SDS011;74725;44.210;17.906;2023-12-14T06:13:31;22.58;;;15.45;;
84500;SDS011;74725;44.210;17.906;2023-12-14T06:15:58;29.70;;;21.20;;
84500;SDS011;74725;44.210;17.906;2023-12-14T06:18:23;42.30;;;29.75;;
84500;SDS011;74725;44.210;17.906;2023-12-14T06:20:49;59.00;;;40.80;;
84500;SDS011;74725;44.210;17.906;2023-12-14T06:23:15;89.97;;;54.08;;
84500;SDS011;74725;44.210;17.906;2023-12-14T06:25:41;71.82;;;46.15;;
84500;SDS011;74725;44.210;17.906;2023-12-14T06:28:07;68.85;;;46.00;;
84500;SDS011;74725;44.210;17.906;2023-12-14T06:30:33;59.00;;;41.45;;
84500;SDS011;74725;44.210;17.906;2023-12-14T06:32:59;59.65;;;42.17;;
84500;SDS011;74725;44.210;17.906;2023-12-14T06:35:25;62.17;;;42.65;;
84500;SDS011;74725;44.210;17.906;2023-12-14T06:37:51;54.85;;;36.08;;
84500;SDS011;74725;44.210;17.906;2023-12-14T06:40:26;48.40;;;32.72;;
84500;SDS011;74725;44.210;17.906;2023-12-14T06:43:07;46.25;;;30.65;;
84500;SDS011;74725;44.210;17.906;2023-12-14T06:45:37;44.88;;;29.02;;
84500;SDS011;74725;44.210;17.906;2023-12-14T06:48:18;46.13;;;30.40;;
84500;SDS011;74725;44.210;17.906;2023-12-14T06:50:51;48.83;;;33.20;;
84500;SDS011;74725;44.210;17.906;2023-12-14T06:53:27;50.75;;;34.13;;
84500;SDS011;74725;44.210;17.906;2023-12-14T06:55:53;59.95;;;39.45;;
84500;SDS011;74725;44.210;17.906;2023-12-14T06:58:21;57.53;;;39.03;;
84500;SDS011;74725;44.210;17.906;2023-12-14T07:00:49;61.70;;;42.17;;
84500;SDS011;74725;44.210;17.906;2023-12-14T07:03:15;68.82;;;43.20;;
84500;SDS011;74725;44.210;17.906;2023-12-14T07:05:43;60.42;;;42.20;;
84500;SDS011;74725;44.210;17.906;2023-12-14T07:08:12;69.88;;;43.97;;
84500;SDS011;74725;44.210;17.906;2023-12-14T07:10:40;75.95;;;50.97;;
84500;SDS011;74725;44.210;17.906;2023-12-14T07:13:07;93.13;;;55.40;;
84500;SDS011;74725;44.210;17.906;2023-12-14T07:15:37;99.35;;;57.47;;
84500;SDS011;74725;44.210;17.906;2023-12-14T07:18:03;60.88;;;38.65;;
84500;SDS011;74725;44.210;17.906;2023-12-14T07:20:29;69.32;;;44.75;;
84500;SDS011;74725;44.210;17.906;2023-12-14T07:22:59;73.13;;;48.17;;
84500;SDS011;74725;44.210;17.906;2023-12-14T07:25:30;63.17;;;42.70;;
84500;SDS011;74725;44.210;17.906;2023-12-14T07:28:03;54.45;;;37.95;;
84500;SDS011;74725;44.210;17.906;2023-12-14T07:30:29;52.55;;;37.63;;
84500;SDS011;74725;44.210;17.906;2023-12-14T07:32:55;56.38;;;38.28;;
84500;SDS011;74725;44.210;17.906;2023-12-14T07:35:21;54.15;;;37.60;;
84500;SDS011;74725;44.210;17.906;2023-12-14T07:37:50;54.47;;;35.10;;
84500;SDS011;74725;44.210;17.906;2023-12-14T07:40:17;53.83;;;34.10;;
84500;SDS011;74725;44.210;17.906;2023-12-14T07:42:42;50.72;;;32.70;;
84500;SDS011;74725;44.210;17.906;2023-12-14T07:45:08;39.25;;;26.90;;
84500;SDS011;74725;44.210;17.906;2023-12-14T07:47:44;39.17;;;24.92;;
84500;SDS011;74725;44.210;17.906;2023-12-14T07:50:12;26.92;;;17.33;;
84500;SDS011;74725;44.210;17.906;2023-12-14T07:52:38;30.55;;;19.75;;
84500;SDS011;74725;44.210;17.906;2023-12-14T07:55:09;44.20;;;29.83;;
84500;SDS011;74725;44.210;17.906;2023-12-14T07:57:41;38.03;;;25.83;;
84500;SDS011;74725;44.210;17.906;2023-12-14T08:00:07;33.03;;;20.45;;
84500;SDS011;74725;44.210;17.906;2023-12-14T08:02:34;39.90;;;27.42;;
84500;SDS011;74725;44.210;17.906;2023-12-14T08:05:00;84.97;;;49.75;;
84500;SDS011;74725;44.210;17.906;2023-12-14T08:07:26;104.95;;;55.42;;
84500;SDS011;74725;44.210;17.906;2023-12-14T08:09:55;144.15;;;76.05;;
84500;SDS011;74725;44.210;17.906;2023-12-14T08:12:22;170.80;;;91.10;;
84500;SDS011;74725;44.210;17.906;2023-12-14T08:14:55;149.73;;;81.15;;
84500;SDS011;74725;44.210;17.906;2023-12-14T08:17:21;116.53;;;63.65;;
84500;SDS011;74725;44.210;17.906;2023-12-14T08:19:47;68.00;;;43.63;;
84500;SDS011;74725;44.210;17.906;2023-12-14T08:22:12;66.50;;;45.67;;
84500;SDS011;74725;44.210;17.906;2023-12-14T08:24:41;67.22;;;43.83;;
84500;SDS011;74725;44.210;17.906;2023-12-14T08:27:07;54.63;;;35.67;;
84500;SDS011;74725;44.210;17.906;2023-12-14T08:29:36;138.40;;;74.07;;
84500;SDS011;74725;44.210;17.906;2023-12-14T08:32:01;161.43;;;88.45;;
84500;SDS011;74725;44.210;17.906;2023-12-14T08:34:29;80.72;;;50.13;;
84500;SDS011;74725;44.210;17.906;2023-12-14T08:36:57;90.53;;;54.22;;
84500;SDS011;74725;44.210;17.906;2023-12-14T08:39:23;58.20;;;38.15;;
84500;SDS011;74725;44.210;17.906;2023-12-14T08:41:49;51.72;;;37.28;;
84500;SDS011;74725;44.210;17.906;2023-12-14T08:44:14;65.65;;;43.40;;
84500;SDS011;74725;44.210;17.906;2023-12-14T08:46:41;111.25;;;62.40;;
84500;SDS011;74725;44.210;17.906;2023-12-14T08:49:10;172.82;;;88.43;;
84500;SDS011;74725;44.210;17.906;2023-12-14T08:51:51;128.02;;;71.68;;
84500;SDS011;74725;44.210;17.906;2023-12-14T08:54:17;134.75;;;72.57;;
84500;SDS011;74725;44.210;17.906;2023-12-14T08:56:43;125.63;;;69.03;;
84500;SDS011;74725;44.210;17.906;2023-12-14T08:59:09;124.15;;;69.93;;
84500;SDS011;74725;44.210;17.906;2023-12-14T09:01:35;130.63;;;68.43;;
84500;SDS011;74725;44.210;17.906;2023-12-14T09:04:00;131.02;;;74.05;;
84500;SDS011;74725;44.210;17.906;2023-12-14T09:06:26;136.75;;;78.03;;
84500;SDS011;74725;44.210;17.906;2023-12-14T09:08:52;147.43;;;83.60;;
84500;SDS011;74725;44.210;17.906;2023-12-14T09:11:19;189.77;;;103.55;;
84500;SDS011;74725;44.210;17.906;2023-12-14T09:13:44;159.73;;;86.15;;
84500;SDS011;74725;44.210;17.906;2023-12-14T09:16:10;153.23;;;83.40;;
84500;SDS011;74725;44.210;17.906;2023-12-14T09:18:38;137.45;;;75.38;;
84500;SDS011;74725;44.210;17.906;2023-12-14T09:21:03;135.73;;;78.38;;
84500;SDS011;74725;44.210;17.906;2023-12-14T09:23:29;140.70;;;77.07;;
84500;SDS011;74725;44.210;17.906;2023-12-14T09:25:55;141.43;;;79.88;;
84500;SDS011;74725;44.210;17.906;2023-12-14T09:28:30;139.57;;;73.57;;
84500;SDS011;74725;44.210;17.906;2023-12-14T09:30:58;144.45;;;76.22;;
84500;SDS011;74725;44.210;17.906;2023-12-14T09:33:23;160.27;;;83.25;;
84500;SDS011;74725;44.210;17.906;2023-12-14T09:35:51;162.95;;;79.65;;
84500;SDS011;74725;44.210;17.906;2023-12-14T09:38:17;151.05;;;76.75;;
84500;SDS011;74725;44.210;17.906;2023-12-14T09:40:44;140.63;;;70.80;;
84500;SDS011;74725;44.210;17.906;2023-12-14T09:43:10;155.65;;;77.80;;
84500;SDS011;74725;44.210;17.906;2023-12-14T09:45:39;133.02;;;68.80;;
84500;SDS011;74725;44.210;17.906;2023-12-14T09:48:10;142.25;;;74.95;;
84500;SDS011;74725;44.210;17.906;2023-12-14T09:50:37;139.18;;;70.05;;
84500;SDS011;74725;44.210;17.906;2023-12-14T09:53:05;139.55;;;68.38;;
84500;SDS011;74725;44.210;17.906;2023-12-14T09:55:32;137.65;;;68.63;;
84500;SDS011;74725;44.210;17.906;2023-12-14T09:57:59;119.22;;;57.78;;
84500;SDS011;74725;44.210;17.906;2023-12-14T10:00:34;121.32;;;58.90;;
84500;SDS011;74725;44.210;17.906;2023-12-14T10:03:20;103.60;;;51.05;;
84500;SDS011;74725;44.210;17.906;2023-12-14T10:05:47;100.53;;;50.58;;
84500;SDS011;74725;44.210;17.906;2023-12-14T10:08:15;108.97;;;55.75;;
84500;SDS011;74725;44.210;17.906;2023-12-14T10:10:42;101.95;;;51.08;;
84500;SDS011;74725;44.210;17.906;2023-12-14T10:13:09;105.80;;;50.72;;
84500;SDS011;74725;44.210;17.906;2023-12-14T10:15:41;93.57;;;47.28;;
84500;SDS011;74725;44.210;17.906;2023-12-14T10:18:08;100.78;;;52.40;;
84500;SDS011;74725;44.210;17.906;2023-12-14T10:20:34;83.53;;;42.28;;
84500;SDS011;74725;44.210;17.906;2023-12-14T10:23:03;71.80;;;38.45;;
84500;SDS011;74725;44.210;17.906;2023-12-14T10:25:31;69.40;;;36.83;;
84500;SDS011;74725;44.210;17.906;2023-12-14T10:27:57;85.97;;;43.10;;
84500;SDS011;74725;44.210;17.906;2023-12-14T10:30:25;60.88;;;33.08;;
84500;SDS011;74725;44.210;17.906;2023-12-14T10:32:54;37.60;;;20.85;;
84500;SDS011;74725;44.210;17.906;2023-12-14T10:35:25;51.33;;;30.77;;
84500;SDS011;74725;44.210;17.906;2023-12-14T10:37:52;75.63;;;41.15;;
84500;SDS011;74725;44.210;17.906;2023-12-14T10:40:21;57.72;;;32.15;;
84500;SDS011;74725;44.210;17.906;2023-12-14T10:42:51;38.10;;;20.65;;
84500;SDS011;74725;44.210;17.906;2023-12-14T10:45:20;47.72;;;26.00;;
84500;SDS011;74725;44.210;17.906;2023-12-14T10:47:50;8.57;;;5.70;;
84500;SDS011;74725;44.210;17.906;2023-12-14T10:50:16;10.20;;;5.40;;
84500;SDS011;74725;44.210;17.906;2023-12-14T10:52:44;11.80;;;5.50;;
84500;SDS011;74725;44.210;17.906;2023-12-14T10:55:13;11.93;;;7.70;;
84500;SDS011;74725;44.210;17.906;2023-12-14T10:57:46;14.70;;;9.98;;
84500;SDS011;74725;44.210;17.906;2023-12-14T11:00:12;35.28;;;16.52;;
84500;SDS011;74725;44.210;17.906;2023-12-14T11:02:41;12.48;;;6.15;;
84500;SDS011;74725;44.210;17.906;2023-12-14T11:05:14;14.85;;;6.78;;
84500;SDS011;74725;44.210;17.906;2023-12-14T11:07:46;14.43;;;8.55;;
84500;SDS011;74725;44.210;17.906;2023-12-14T11:10:22;9.48;;;5.93;;
84500;SDS011;74725;44.210;17.906;2023-12-14T11:13:06;7.15;;;4.25;;
84500;SDS011;74725;44.210;17.906;2023-12-14T11:15:38;7.47;;;3.90;;
84500;SDS011;74725;44.210;17.906;2023-12-14T11:18:26;6.30;;;3.72;;
84500;SDS011;74725;44.210;17.906;2023-12-14T11:20:53;6.22;;;4.00;;
84500;SDS011;74725;44.210;17.906;2023-12-14T11:25:54;7.40;;;5.00;;
84500;SDS011;74725;44.210;17.906;2023-12-14T11:28:30;9.93;;;6.00;;
84500;SDS011;74725;44.210;17.906;2023-12-14T11:30:57;15.02;;;7.53;;
84500;SDS011;74725;44.210;17.906;2023-12-14T11:33:23;28.27;;;11.77;;
84500;SDS011;74725;44.210;17.906;2023-12-14T11:36:01;19.10;;;9.57;;
84500;SDS011;74725;44.210;17.906;2023-12-14T11:38:29;15.38;;;8.68;;
84500;SDS011;74725;44.210;17.906;2023-12-14T11:40:55;7.28;;;4.38;;
84500;SDS011;74725;44.210;17.906;2023-12-14T11:43:21;6.63;;;4.50;;
84500;SDS011;74725;44.210;17.906;2023-12-14T11:45:48;7.25;;;4.28;;
84500;SDS011;74725;44.210;17.906;2023-12-14T11:48:14;5.95;;;4.47;;
84500;SDS011;74725;44.210;17.906;2023-12-14T11:50:40;7.60;;;4.80;;
84500;SDS011;74725;44.210;17.906;2023-12-14T11:53:08;7.90;;;5.25;;
84500;SDS011;74725;44.210;17.906;2023-12-14T11:55:35;5.82;;;4.20;;
84500;SDS011;74725;44.210;17.906;2023-12-14T12:00:43;4.15;;;3.25;;
84500;SDS011;74725;44.210;17.906;2023-12-14T12:03:18;4.90;;;3.78;;
84500;SDS011;74725;44.210;17.906;2023-12-14T12:05:51;4.63;;;3.47;;
84500;SDS011;74725;44.210;17.906;2023-12-14T12:08:18;4.15;;;3.17;;
84500;SDS011;74725;44.210;17.906;2023-12-14T12:10:46;4.65;;;3.30;;
84500;SDS011;74725;44.210;17.906;2023-12-14T12:13:29;6.00;;;4.10;;
84500;SDS011;74725;44.210;17.906;2023-12-14T12:15:55;4.00;;;3.20;;
84500;SDS011;74725;44.210;17.906;2023-12-14T12:18:20;6.50;;;4.38;;
84500;SDS011;74725;44.210;17.906;2023-12-14T12:20:47;4.35;;;3.10;;
84500;SDS011;74725;44.210;17.906;2023-12-14T12:23:13;3.00;;;2.65;;
84500;SDS011;74725;44.210;17.906;2023-12-14T12:25:40;3.03;;;2.72;;
84500;SDS011;74725;44.210;17.906;2023-12-14T12:28:06;3.50;;;2.35;;
84500;SDS011;74725;44.210;17.906;2023-12-14T12:30:32;18.83;;;9.18;;
84500;SDS011;74725;44.210;17.906;2023-12-14T12:33:04;10.15;;;7.53;;
84500;SDS011;74725;44.210;17.906;2023-12-14T12:35:31;3.17;;;2.60;;
84500;SDS011;74725;44.210;17.906;2023-12-14T12:37:58;1.80;;;1.70;;
84500;SDS011;74725;44.210;17.906;2023-12-14T12:40:24;2.33;;;1.90;;
84500;SDS011;74725;44.210;17.906;2023-12-14T12:42:55;2.40;;;2.20;;
84500;SDS011;74725;44.210;17.906;2023-12-14T12:45:21;2.70;;;2.35;;
84500;SDS011;74725;44.210;17.906;2023-12-14T12:47:53;2.10;;;1.88;;
84500;SDS011;74725;44.210;17.906;2023-12-14T12:50:19;1.60;;;1.50;;
84500;SDS011;74725;44.210;17.906;2023-12-14T12:55:51;1.10;;;1.00;;
84500;SDS011;74725;44.210;17.906;2023-12-14T12:58:54;2.50;;;1.77;;
84500;SDS011;74725;44.210;17.906;2023-12-14T13:02:35;3.72;;;2.17;;
84500;SDS011;74725;44.210;17.906;2023-12-14T13:05:01;1.73;;;1.63;;
84500;SDS011;74725;44.210;17.906;2023-12-14T13:07:27;2.55;;;1.65;;
84500;SDS011;74725;44.210;17.906;2023-12-14T13:09:52;2.25;;;1.90;;
84500;SDS011;74725;44.210;17.906;2023-12-14T13:12:18;1.98;;;1.70;;
84500;SDS011;74725;44.210;17.906;2023-12-14T13:14:44;1.60;;;1.50;;
84500;SDS011;74725;44.210;17.906;2023-12-14T13:17:09;2.58;;;1.20;;
84500;SDS011;74725;44.210;17.906;2023-12-14T13:19:35;1.42;;;1.33;;
84500;SDS011;74725;44.210;17.906;2023-12-14T13:22:01;1.80;;;1.70;;
84500;SDS011;74725;44.210;17.906;2023-12-14T13:24:27;2.13;;;2.00;;
84500;SDS011;74725;44.210;17.906;2023-12-14T13:26:53;2.22;;;2.10;;
84500;SDS011;74725;44.210;17.906;2023-12-14T13:29:18;1.65;;;1.55;;
84500;SDS011;74725;44.210;17.906;2023-12-14T13:31:46;2.25;;;2.00;;
84500;SDS011;74725;44.210;17.906;2023-12-14T13:34:12;3.63;;;2.33;;
84500;SDS011;74725;44.210;17.906;2023-12-14T13:36:38;1.98;;;1.70;;
84500;SDS011;74725;44.210;17.906;2023-12-14T13:39:03;2.42;;;1.42;;
84500;SDS011;74725;44.210;17.906;2023-12-14T13:41:29;1.85;;;1.58;;
84500;SDS011;74725;44.210;17.906;2023-12-14T13:43:59;1.75;;;1.65;;
84500;SDS011;74725;44.210;17.906;2023-12-14T13:46:25;6.25;;;2.63;;
84500;SDS011;74725;44.210;17.906;2023-12-14T13:48:50;2.92;;;2.00;;
84500;SDS011;74725;44.210;17.906;2023-12-14T13:51:18;3.05;;;1.98;;
84500;SDS011;74725;44.210;17.906;2023-12-14T13:53:44;2.38;;;1.90;;
84500;SDS011;74725;44.210;17.906;2023-12-14T13:56:30;2.83;;;2.40;;
84500;SDS011;74725;44.210;17.906;2023-12-14T14:02:13;4.88;;;2.40;;
84500;SDS011;74725;44.210;17.906;2023-12-14T14:04:39;2.05;;;1.75;;
84500;SDS011;74725;44.210;17.906;2023-12-14T14:07:13;2.20;;;1.90;;
84500;SDS011;74725;44.210;17.906;2023-12-14T14:09:39;2.88;;;1.90;;
84500;SDS011;74725;44.210;17.906;2023-12-14T14:12:05;2.70;;;2.50;;
84500;SDS011;74725;44.210;17.906;2023-12-14T14:14:31;2.92;;;2.55;;
84500;SDS011;74725;44.210;17.906;2023-12-14T14:20:09;1.80;;;1.70;;
84500;SDS011;74725;44.210;17.906;2023-12-14T14:26:59;2.50;;;2.10;;
84500;SDS011;74725;44.210;17.906;2023-12-14T14:29:25;3.60;;;2.85;;
84500;SDS011;74725;44.210;17.906;2023-12-14T14:32:00;6.03;;;4.70;;
84500;SDS011;74725;44.210;17.906;2023-12-14T14:34:26;3.83;;;3.00;;
84500;SDS011;74725;44.210;17.906;2023-12-14T14:36:52;3.05;;;2.42;;
84500;SDS011;74725;44.210;17.906;2023-12-14T14:39:18;3.30;;;3.00;;
84500;SDS011;74725;44.210;17.906;2023-12-14T14:41:44;5.78;;;4.85;;
84500;SDS011;74725;44.210;17.906;2023-12-14T14:44:10;2.95;;;2.65;;
84500;SDS011;74725;44.210;17.906;2023-12-14T14:46:36;1.58;;;1.40;;
84500;SDS011;74725;44.210;17.906;2023-12-14T14:49:03;2.30;;;2.10;;
84500;SDS011;74725;44.210;17.906;2023-12-14T14:51:29;4.25;;;2.17;;
84500;SDS011;74725;44.210;17.906;2023-12-14T14:53:58;1.88;;;1.60;;
84500;SDS011;74725;44.210;17.906;2023-12-14T14:56:24;1.52;;;1.40;;
84500;SDS011;74725;44.210;17.906;2023-12-14T14:58:49;1.80;;;1.58;;
84500;SDS011;74725;44.210;17.906;2023-12-14T15:01:15;2.97;;;2.60;;
84500;SDS011;74725;44.210;17.906;2023-12-14T15:03:41;2.00;;;1.90;;
84500;SDS011;74725;44.210;17.906;2023-12-14T15:06:07;2.55;;;2.35;;
84500;SDS011;74725;44.210;17.906;2023-12-14T15:08:32;2.40;;;2.20;;
84500;SDS011;74725;44.210;17.906;2023-12-14T15:10:58;4.15;;;3.28;;
84500;SDS011;74725;44.210;17.906;2023-12-14T15:13:24;2.40;;;2.20;;
84500;SDS011;74725;44.210;17.906;2023-12-14T15:15:50;4.15;;;2.60;;
84500;SDS011;74725;44.210;17.906;2023-12-14T15:18:16;1.98;;;1.88;;
84500;SDS011;74725;44.210;17.906;2023-12-14T15:20:42;2.63;;;2.42;;
84500;SDS011;74725;44.210;17.906;2023-12-14T15:23:07;4.25;;;3.00;;
84500;SDS011;74725;44.210;17.906;2023-12-14T15:25:33;4.15;;;3.30;;
84500;SDS011;74725;44.210;17.906;2023-12-14T15:27:59;8.57;;;6.47;;
84500;SDS011;74725;44.210;17.906;2023-12-14T15:30:25;16.27;;;11.02;;
84500;SDS011;74725;44.210;17.906;2023-12-14T15:32:51;8.18;;;5.85;;
84500;SDS011;74725;44.210;17.906;2023-12-14T15:35:17;12.05;;;8.57;;
84500;SDS011;74725;44.210;17.906;2023-12-14T15:37:43;8.38;;;5.95;;
84500;SDS011;74725;44.210;17.906;2023-12-14T15:40:08;13.40;;;10.73;;
84500;SDS011;74725;44.210;17.906;2023-12-14T15:42:34;32.95;;;16.95;;
84500;SDS011;74725;44.210;17.906;2023-12-14T15:45:00;40.35;;;19.27;;
84500;SDS011;74725;44.210;17.906;2023-12-14T15:47:26;25.35;;;13.65;;